sensor_id;sensor_type;location;lat;lon;timestamp;pressure;altitude;pressure_sealevel;temperature
42197;BMP280;27866;48.146;17.098;2023-12-20T00:00:18;99664.25;;;6.14
42197;BMP280;27866;48.146;17.098;2023-12-20T00:04:30;99658.97;;;6.17
42197;BMP280;27866;48.146;17.098;2023-12-20T00:08:41;99648.03;;;6.29
42197;BMP280;27866;48.146;17.098;2023-12-20T00:12:53;99644.72;;;6.27
42197;BMP280;27866;48.146;17.098;2023-12-20T00:17:04;99642.97;;;6.42
42197;BMP280;27866;48.146;17.098;2023-12-20T00:21:16;99636.25;;;6.55
42197;BMP280;27866;48.146;17.098;2023-12-20T00:25:27;99630.84;;;6.44
42197;BMP280;27866;48.146;17.098;2023-12-20T00:29:39;99643.47;;;6.34
42197;BMP280;27866;48.146;17.098;2023-12-20T00:33:51;99616.03;;;6.34
42197;BMP280;27866;48.146;17.098;2023-12-20T00:38:02;99626.97;;;6.37
42197;BMP280;27866;48.146;17.098;2023-12-20T00:42:14;99631.69;;;6.30
42197;BMP280;27866;48.146;17.098;2023-12-20T00:46:25;99618.41;;;6.22
42197;BMP280;27866;48.146;17.098;2023-12-20T00:50:37;99615.50;;;6.28
42197;BMP280;27866;48.146;17.098;2023-12-20T00:54:48;99606.41;;;6.37
42197;BMP280;27866;48.146;17.098;2023-12-20T00:59:00;99614.28;;;6.35
42197;BMP280;27866;48.146;17.098;2023-12-20T01:03:11;99613.03;;;6.26
42197;BMP280;27866;48.146;17.098;2023-12-20T01:07:23;99609.19;;;6.18
42197;BMP280;27866;48.146;17.098;2023-12-20T01:11:35;99613.13;;;6.25
42197;BMP280;27866;48.146;17.098;2023-12-20T01:15:46;99616.81;;;6.20
42197;BMP280;27866;48.146;17.098;2023-12-20T01:19:58;99604.66;;;6.23
42197;BMP280;27866;48.146;17.098;2023-12-20T01:24:10;99605.56;;;6.22
42197;BMP280;27866;48.146;17.098;2023-12-20T01:28:22;99602.00;;;6.24
42197;BMP280;27866;48.146;17.098;2023-12-20T01:32:33;99598.03;;;6.19
42197;BMP280;27866;48.146;17.098;2023-12-20T01:36:45;99602.16;;;6.22
42197;BMP280;27866;48.146;17.098;2023-12-20T01:40:57;99613.34;;;6.21
42197;BMP280;27866;48.146;17.098;2023-12-20T01:45:09;99607.69;;;6.14
42197;BMP280;27866;48.146;17.098;2023-12-20T01:49:21;99600.91;;;6.13
42197;BMP280;27866;48.146;17.098;2023-12-20T01:53:33;99608.41;;;6.18
42197;BMP280;27866;48.146;17.098;2023-12-20T01:57:45;99576.19;;;6.26
42197;BMP280;27866;48.146;17.098;2023-12-20T02:01:58;99568.91;;;6.34
42197;BMP280;27866;48.146;17.098;2023-12-20T02:06:10;99569.84;;;6.33
42197;BMP280;27866;48.146;17.098;2023-12-20T02:10:22;99555.16;;;6.35
42197;BMP280;27866;48.146;17.098;2023-12-20T02:14:34;99547.25;;;6.37
42197;BMP280;27866;48.146;17.098;2023-12-20T02:18:46;99548.75;;;6.41
42197;BMP280;27866;48.146;17.098;2023-12-20T02:22:57;99532.25;;;6.45
42197;BMP280;27866;48.146;17.098;2023-12-20T02:27:09;99536.84;;;6.54
42197;BMP280;27866;48.146;17.098;2023-12-20T02:31:24;99506.00;;;6.54
42197;BMP280;27866;48.146;17.098;2023-12-20T02:35:35;99511.13;;;6.54
42197;BMP280;27866;48.146;17.098;2023-12-20T02:39:47;99503.84;;;6.47
42197;BMP280;27866;48.146;17.098;2023-12-20T02:43:58;99492.09;;;6.43
42197;BMP280;27866;48.146;17.098;2023-12-20T02:48:10;99500.34;;;6.63
42197;BMP280;27866;48.146;17.098;2023-12-20T02:52:23;99501.00;;;6.66
42197;BMP280;27866;48.146;17.098;2023-12-20T02:56:34;99492.88;;;6.58
42197;BMP280;27866;48.146;17.098;2023-12-20T03:00:46;99481.94;;;6.55
42197;BMP280;27866;48.146;17.098;2023-12-20T03:04:57;99474.59;;;6.49
42197;BMP280;27866;48.146;17.098;2023-12-20T03:09:11;99461.88;;;6.46
42197;BMP280;27866;48.146;17.098;2023-12-20T03:13:22;99449.47;;;6.39
42197;BMP280;27866;48.146;17.098;2023-12-20T03:17:34;99452.91;;;6.53
42197;BMP280;27866;48.146;17.098;2023-12-20T03:21:46;99440.63;;;6.58
42197;BMP280;27866;48.146;17.098;2023-12-20T03:25:57;99443.47;;;6.53
42197;BMP280;27866;48.146;17.098;2023-12-20T03:30:09;99435.75;;;6.53
42197;BMP280;27866;48.146;17.098;2023-12-20T03:34:21;99429.94;;;6.50
42197;BMP280;27866;48.146;17.098;2023-12-20T03:38:32;99419.94;;;6.46
42197;BMP280;27866;48.146;17.098;2023-12-20T03:42:44;99438.22;;;6.55
42197;BMP280;27866;48.146;17.098;2023-12-20T03:46:55;99431.16;;;6.58
42197;BMP280;27866;48.146;17.098;2023-12-20T03:51:07;99442.63;;;6.53
42197;BMP280;27866;48.146;17.098;2023-12-20T03:55:19;99422.81;;;6.55
42197;BMP280;27866;48.146;17.098;2023-12-20T03:59:34;99433.25;;;6.52
42197;BMP280;27866;48.146;17.098;2023-12-20T04:03:46;99428.44;;;6.46
42197;BMP280;27866;48.146;17.098;2023-12-20T04:07:57;99429.53;;;6.42
42197;BMP280;27866;48.146;17.098;2023-12-20T04:12:09;99435.22;;;6.34
42197;BMP280;27866;48.146;17.098;2023-12-20T04:16:20;99423.28;;;6.33
42197;BMP280;27866;48.146;17.098;2023-12-20T04:20:32;99431.75;;;6.35
42197;BMP280;27866;48.146;17.098;2023-12-20T04:24:44;99425.47;;;6.25
42197;BMP280;27866;48.146;17.098;2023-12-20T04:28:55;99436.25;;;6.16
42197;BMP280;27866;48.146;17.098;2023-12-20T04:33:07;99433.13;;;6.11
42197;BMP280;27866;48.146;17.098;2023-12-20T04:37:18;99434.59;;;6.15
42197;BMP280;27866;48.146;17.098;2023-12-20T04:41:30;99421.47;;;6.35
42197;BMP280;27866;48.146;17.098;2023-12-20T04:45:41;99428.44;;;6.33
42197;BMP280;27866;48.146;17.098;2023-12-20T04:49:53;99423.06;;;6.22
42197;BMP280;27866;48.146;17.098;2023-12-20T04:54:04;99427.63;;;6.17
42197;BMP280;27866;48.146;17.098;2023-12-20T04:58:16;99424.31;;;6.15
42197;BMP280;27866;48.146;17.098;2023-12-20T05:02:27;99425.91;;;6.18
42197;BMP280;27866;48.146;17.098;2023-12-20T05:06:39;99419.19;;;6.15
42197;BMP280;27866;48.146;17.098;2023-12-20T05:10:52;99427.78;;;6.14
42197;BMP280;27866;48.146;17.098;2023-12-20T05:15:06;99429.03;;;6.22
42197;BMP280;27866;48.146;17.098;2023-12-20T05:19:18;99430.25;;;6.31
42197;BMP280;27866;48.146;17.098;2023-12-20T05:23:29;99430.41;;;6.28
42197;BMP280;27866;48.146;17.098;2023-12-20T05:27:41;99428.94;;;6.24
42197;BMP280;27866;48.146;17.098;2023-12-20T05:31:52;99429.94;;;6.22
42197;BMP280;27866;48.146;17.098;2023-12-20T05:36:04;99429.81;;;6.09
42197;BMP280;27866;48.146;17.098;2023-12-20T05:40:16;99432.03;;;6.15
42197;BMP280;27866;48.146;17.098;2023-12-20T05:44:28;99430.09;;;6.19
42197;BMP280;27866;48.146;17.098;2023-12-20T05:48:39;99429.69;;;6.26
42197;BMP280;27866;48.146;17.098;2023-12-20T05:52:51;99420.31;;;6.25
42197;BMP280;27866;48.146;17.098;2023-12-20T05:57:02;99431.91;;;6.32
42197;BMP280;27866;48.146;17.098;2023-12-20T06:01:17;99433.03;;;6.41
42197;BMP280;27866;48.146;17.098;2023-12-20T06:05:28;99433.72;;;6.30
42197;BMP280;27866;48.146;17.098;2023-12-20T06:09:40;99429.53;;;6.42
42197;BMP280;27866;48.146;17.098;2023-12-20T06:13:51;99424.50;;;6.41
42197;BMP280;27866;48.146;17.098;2023-12-20T06:18:04;99430.28;;;6.44
42197;BMP280;27866;48.146;17.098;2023-12-20T06:22:16;99421.75;;;6.44
42197;BMP280;27866;48.146;17.098;2023-12-20T06:26:28;99427.56;;;6.47
42197;BMP280;27866;48.146;17.098;2023-12-20T06:30:39;99411.47;;;6.44
42197;BMP280;27866;48.146;17.098;2023-12-20T06:34:51;99415.28;;;6.37
42197;BMP280;27866;48.146;17.098;2023-12-20T06:39:02;99423.63;;;6.27
42197;BMP280;27866;48.146;17.098;2023-12-20T06:43:16;99426.16;;;6.13
42197;BMP280;27866;48.146;17.098;2023-12-20T06:47:27;99413.72;;;6.06
42197;BMP280;27866;48.146;17.098;2023-12-20T06:51:39;99420.19;;;5.98
42197;BMP280;27866;48.146;17.098;2023-12-20T06:55:50;99431.16;;;5.86
42197;BMP280;27866;48.146;17.098;2023-12-20T07:00:02;99437.53;;;5.94
42197;BMP280;27866;48.146;17.098;2023-12-20T07:04:14;99433.06;;;5.98
42197;BMP280;27866;48.146;17.098;2023-12-20T07:08:25;99433.94;;;6.12
42197;BMP280;27866;48.146;17.098;2023-12-20T07:12:37;99435.22;;;6.34
42197;BMP280;27866;48.146;17.098;2023-12-20T07:16:48;99437.97;;;6.59
42197;BMP280;27866;48.146;17.098;2023-12-20T07:21:00;99442.97;;;6.76
42197;BMP280;27866;48.146;17.098;2023-12-20T07:25:11;99441.97;;;6.92
42197;BMP280;27866;48.146;17.098;2023-12-20T07:29:23;99442.19;;;7.16
42197;BMP280;27866;48.146;17.098;2023-12-20T07:33:34;99424.88;;;7.31
42197;BMP280;27866;48.146;17.098;2023-12-20T07:37:46;99428.03;;;7.36
42197;BMP280;27866;48.146;17.098;2023-12-20T07:41:57;99420.56;;;7.45
42197;BMP280;27866;48.146;17.098;2023-12-20T07:46:09;99419.34;;;7.51
42197;BMP280;27866;48.146;17.098;2023-12-20T07:50:21;99423.16;;;7.71
42197;BMP280;27866;48.146;17.098;2023-12-20T07:54:32;99419.84;;;7.82
42197;BMP280;27866;48.146;17.098;2023-12-20T07:58:44;99420.84;;;7.94
42197;BMP280;27866;48.146;17.098;2023-12-20T08:02:56;99420.28;;;8.02
42197;BMP280;27866;48.146;17.098;2023-12-20T08:07:07;99433.31;;;8.13
42197;BMP280;27866;48.146;17.098;2023-12-20T08:11:19;99427.53;;;8.10
42197;BMP280;27866;48.146;17.098;2023-12-20T08:15:32;99428.94;;;7.88
42197;BMP280;27866;48.146;17.098;2023-12-20T08:19:43;99442.13;;;7.83
42197;BMP280;27866;48.146;17.098;2023-12-20T08:23:55;99430.38;;;7.66
42197;BMP280;27866;48.146;17.098;2023-12-20T08:28:07;99416.00;;;7.76
42197;BMP280;27866;48.146;17.098;2023-12-20T08:32:18;99415.03;;;7.90
42197;BMP280;27866;48.146;17.098;2023-12-20T08:36:30;99408.75;;;8.08
42197;BMP280;27866;48.146;17.098;2023-12-20T08:40:41;99416.84;;;8.27
42197;BMP280;27866;48.146;17.098;2023-12-20T08:44:53;99418.69;;;8.25
42197;BMP280;27866;48.146;17.098;2023-12-20T08:49:05;99407.75;;;8.10
42197;BMP280;27866;48.146;17.098;2023-12-20T08:53:16;99407.97;;;8.19
42197;BMP280;27866;48.146;17.098;2023-12-20T08:57:28;99419.41;;;8.53
42197;BMP280;27866;48.146;17.098;2023-12-20T09:01:40;99400.25;;;8.81
42197;BMP280;27866;48.146;17.098;2023-12-20T09:05:52;99390.66;;;8.95
42197;BMP280;27866;48.146;17.098;2023-12-20T09:10:03;99410.38;;;9.08
42197;BMP280;27866;48.146;17.098;2023-12-20T09:14:15;99419.44;;;9.01
42197;BMP280;27866;48.146;17.098;2023-12-20T09:18:26;99389.88;;;9.29
42197;BMP280;27866;48.146;17.098;2023-12-20T09:22:38;99372.59;;;9.89
42197;BMP280;27866;48.146;17.098;2023-12-20T09:26:50;99380.75;;;10.51
42197;BMP280;27866;48.146;17.098;2023-12-20T09:31:02;99381.09;;;11.01
42197;BMP280;27866;48.146;17.098;2023-12-20T09:35:14;99351.84;;;11.33
42197;BMP280;27866;48.146;17.098;2023-12-20T09:39:26;99363.97;;;11.54
42197;BMP280;27866;48.146;17.098;2023-12-20T09:43:38;99358.94;;;11.83
42197;BMP280;27866;48.146;17.098;2023-12-20T09:47:53;99356.06;;;12.07
42197;BMP280;27866;48.146;17.098;2023-12-20T09:52:08;99348.44;;;12.25
42197;BMP280;27866;48.146;17.098;2023-12-20T09:56:21;99344.00;;;12.36
42197;BMP280;27866;48.146;17.098;2023-12-20T10:00:33;99364.91;;;12.35
42197;BMP280;27866;48.146;17.098;2023-12-20T10:04:47;99358.81;;;12.45
42197;BMP280;27866;48.146;17.098;2023-12-20T10:09:02;99358.97;;;12.54
42197;BMP280;27866;48.146;17.098;2023-12-20T10:13:14;99359.59;;;12.67
42197;BMP280;27866;48.146;17.098;2023-12-20T10:17:27;99359.78;;;12.75
42197;BMP280;27866;48.146;17.098;2023-12-20T10:21:42;99349.81;;;12.79
42197;BMP280;27866;48.146;17.098;2023-12-20T10:25:58;99344.09;;;12.85
42197;BMP280;27866;48.146;17.098;2023-12-20T10:30:10;99350.00;;;12.87
42197;BMP280;27866;48.146;17.098;2023-12-20T10:34:22;99342.72;;;12.81
42197;BMP280;27866;48.146;17.098;2023-12-20T10:38:35;99348.88;;;12.80
42197;BMP280;27866;48.146;17.098;2023-12-20T10:42:50;99343.22;;;12.75
42197;BMP280;27866;48.146;17.098;2023-12-20T10:47:04;99328.75;;;12.73
42197;BMP280;27866;48.146;17.098;2023-12-20T10:51:18;99324.34;;;12.74
42197;BMP280;27866;48.146;17.098;2023-12-20T10:55:30;99314.22;;;12.71
42197;BMP280;27866;48.146;17.098;2023-12-20T10:59:42;99315.28;;;12.68
42197;BMP280;27866;48.146;17.098;2023-12-20T11:03:54;99306.25;;;12.63
42197;BMP280;27866;48.146;17.098;2023-12-20T11:08:11;99314.22;;;12.71
42197;BMP280;27866;48.146;17.098;2023-12-20T11:12:38;99303.56;;;12.74
42197;BMP280;27866;48.146;17.098;2023-12-20T11:17:09;99302.75;;;12.73
42197;BMP280;27866;48.146;17.098;2023-12-20T11:21:21;99300.59;;;12.78
42197;BMP280;27866;48.146;17.098;2023-12-20T11:25:55;99301.59;;;12.86
42197;BMP280;27866;48.146;17.098;2023-12-20T11:30:08;99319.00;;;12.95
42197;BMP280;27866;48.146;17.098;2023-12-20T11:34:21;99300.56;;;12.98
42197;BMP280;27866;48.146;17.098;2023-12-20T11:38:38;99288.13;;;13.01
42197;BMP280;27866;48.146;17.098;2023-12-20T11:42:51;99287.56;;;12.98
42197;BMP280;27866;48.146;17.098;2023-12-20T11:47:04;99300.69;;;12.96
42197;BMP280;27866;48.146;17.098;2023-12-20T11:51:16;99308.38;;;12.98
42197;BMP280;27866;48.146;17.098;2023-12-20T11:55:27;99287.31;;;13.01
42197;BMP280;27866;48.146;17.098;2023-12-20T11:59:39;99295.78;;;13.03
42197;BMP280;27866;48.146;17.098;2023-12-20T12:04:05;99279.41;;;13.11
42197;BMP280;27866;48.146;17.098;2023-12-20T12:08:17;99283.97;;;13.18
42197;BMP280;27866;48.146;17.098;2023-12-20T12:12:29;99278.38;;;13.32
42197;BMP280;27866;48.146;17.098;2023-12-20T12:16:44;99271.88;;;13.47
42197;BMP280;27866;48.146;17.098;2023-12-20T12:21:03;99264.78;;;13.58
42197;BMP280;27866;48.146;17.098;2023-12-20T12:25:14;99256.28;;;13.56
42197;BMP280;27866;48.146;17.098;2023-12-20T12:29:27;99246.97;;;13.53
42197;BMP280;27866;48.146;17.098;2023-12-20T12:33:38;99256.81;;;13.50
42197;BMP280;27866;48.146;17.098;2023-12-20T12:37:50;99249.41;;;13.46
42197;BMP280;27866;48.146;17.098;2023-12-20T12:42:02;99249.38;;;13.36
42197;BMP280;27866;48.146;17.098;2023-12-20T12:46:14;99245.69;;;13.30
42197;BMP280;27866;48.146;17.098;2023-12-20T12:50:25;99254.81;;;13.24
42197;BMP280;27866;48.146;17.098;2023-12-20T12:54:39;99264.13;;;13.27
42197;BMP280;27866;48.146;17.098;2023-12-20T12:58:51;99276.31;;;13.26
42197;BMP280;27866;48.146;17.098;2023-12-20T13:03:03;99265.91;;;13.26
42197;BMP280;27866;48.146;17.098;2023-12-20T13:07:15;99272.22;;;13.24
42197;BMP280;27866;48.146;17.098;2023-12-20T13:11:26;99274.03;;;13.42
42197;BMP280;27866;48.146;17.098;2023-12-20T13:15:38;99284.63;;;13.68
42197;BMP280;27866;48.146;17.098;2023-12-20T13:19:50;99285.94;;;13.91
42197;BMP280;27866;48.146;17.098;2023-12-20T13:24:01;99281.13;;;13.96
42197;BMP280;27866;48.146;17.098;2023-12-20T13:28:13;99271.56;;;13.88
42197;BMP280;27866;48.146;17.098;2023-12-20T13:32:25;99276.91;;;13.77
42197;BMP280;27866;48.146;17.098;2023-12-20T13:36:37;99295.50;;;13.82
42197;BMP280;27866;48.146;17.098;2023-12-20T13:40:48;99279.75;;;13.74
42197;BMP280;27866;48.146;17.098;2023-12-20T13:45:00;99276.81;;;13.68
42197;BMP280;27866;48.146;17.098;2023-12-20T13:49:11;99271.75;;;13.66
42197;BMP280;27866;48.146;17.098;2023-12-20T13:53:23;99274.38;;;13.66
42197;BMP280;27866;48.146;17.098;2023-12-20T13:57:35;99280.53;;;13.65
42197;BMP280;27866;48.146;17.098;2023-12-20T14:01:48;99285.28;;;13.51
42197;BMP280;27866;48.146;17.098;2023-12-20T14:06:01;99303.34;;;13.53
42197;BMP280;27866;48.146;17.098;2023-12-20T14:10:13;99286.91;;;13.43
42197;BMP280;27866;48.146;17.098;2023-12-20T14:14:25;99289.63;;;13.32
42197;BMP280;27866;48.146;17.098;2023-12-20T14:18:37;99280.44;;;13.29
42197;BMP280;27866;48.146;17.098;2023-12-20T14:22:48;99286.59;;;13.28
42197;BMP280;27866;48.146;17.098;2023-12-20T14:27:00;99286.25;;;13.12
42197;BMP280;27866;48.146;17.098;2023-12-20T14:31:11;99282.97;;;12.81
42197;BMP280;27866;48.146;17.098;2023-12-20T14:35:23;99286.72;;;12.48
42197;BMP280;27866;48.146;17.098;2023-12-20T14:39:35;99296.44;;;12.36
42197;BMP280;27866;48.146;17.098;2023-12-20T14:43:51;99301.34;;;12.30
42197;BMP280;27866;48.146;17.098;2023-12-20T14:48:04;99306.25;;;12.13
42197;BMP280;27866;48.146;17.098;2023-12-20T14:52:18;99298.50;;;12.02
42197;BMP280;27866;48.146;17.098;2023-12-20T14:56:30;99313.56;;;11.77
42197;BMP280;27866;48.146;17.098;2023-12-20T15:00:41;99313.88;;;11.53
42197;BMP280;27866;48.146;17.098;2023-12-20T15:04:54;99312.09;;;11.43
42197;BMP280;27866;48.146;17.098;2023-12-20T15:09:05;99323.31;;;11.54
42197;BMP280;27866;48.146;17.098;2023-12-20T15:13:17;99343.22;;;11.54
42197;BMP280;27866;48.146;17.098;2023-12-20T15:17:28;99334.25;;;11.58
42197;BMP280;27866;48.146;17.098;2023-12-20T15:21:41;99334.25;;;11.58
42197;BMP280;27866;48.146;17.098;2023-12-20T15:25:53;99335.91;;;11.48
42197;BMP280;27866;48.146;17.098;2023-12-20T15:30:06;99328.63;;;11.42
42197;BMP280;27866;48.146;17.098;2023-12-20T15:34:20;99325.22;;;11.31
42197;BMP280;27866;48.146;17.098;2023-12-20T15:38:32;99323.81;;;11.27
42197;BMP280;27866;48.146;17.098;2023-12-20T15:42:45;99323.31;;;11.33
42197;BMP280;27866;48.146;17.098;2023-12-20T15:46:57;99316.34;;;11.44
42197;BMP280;27866;48.146;17.098;2023-12-20T15:51:09;99316.72;;;11.50
42197;BMP280;27866;48.146;17.098;2023-12-20T15:55:21;99316.09;;;11.58
42197;BMP280;27866;48.146;17.098;2023-12-20T15:59:33;99313.03;;;11.53
42197;BMP280;27866;48.146;17.098;2023-12-20T16:03:44;99324.00;;;11.45
42197;BMP280;27866;48.146;17.098;2023-12-20T16:07:56;99334.28;;;11.36
42197;BMP280;27866;48.146;17.098;2023-12-20T16:12:07;99332.16;;;11.30
42197;BMP280;27866;48.146;17.098;2023-12-20T16:16:20;99333.91;;;11.30
42197;BMP280;27866;48.146;17.098;2023-12-20T16:20:31;99342.06;;;11.26
42197;BMP280;27866;48.146;17.098;2023-12-20T16:24:43;99350.41;;;11.29
42197;BMP280;27866;48.146;17.098;2023-12-20T16:28:54;99338.50;;;11.48
42197;BMP280;27866;48.146;17.098;2023-12-20T16:33:06;99334.81;;;11.61
42197;BMP280;27866;48.146;17.098;2023-12-20T16:37:18;99339.75;;;11.64
42197;BMP280;27866;48.146;17.098;2023-12-20T16:41:29;99337.19;;;11.53
42197;BMP280;27866;48.146;17.098;2023-12-20T16:45:41;99336.97;;;11.45
42197;BMP280;27866;48.146;17.098;2023-12-20T16:49:53;99341.44;;;11.44
42197;BMP280;27866;48.146;17.098;2023-12-20T16:54:04;99335.22;;;11.46
42197;BMP280;27866;48.146;17.098;2023-12-20T16:58:16;99333.53;;;11.45
42197;BMP280;27866;48.146;17.098;2023-12-20T17:02:29;99324.97;;;11.34
42197;BMP280;27866;48.146;17.098;2023-12-20T17:06:41;99322.97;;;11.27
42197;BMP280;27866;48.146;17.098;2023-12-20T17:10:53;99327.66;;;11.11
42197;BMP280;27866;48.146;17.098;2023-12-20T17:15:05;99336.13;;;11.02
42197;BMP280;27866;48.146;17.098;2023-12-20T17:19:17;99353.19;;;10.94
42197;BMP280;27866;48.146;17.098;2023-12-20T17:23:29;99361.22;;;10.91
42197;BMP280;27866;48.146;17.098;2023-12-20T17:27:40;99371.31;;;10.84
42197;BMP280;27866;48.146;17.098;2023-12-20T17:31:52;99379.31;;;10.81
42197;BMP280;27866;48.146;17.098;2023-12-20T17:36:04;99385.56;;;10.78
42197;BMP280;27866;48.146;17.098;2023-12-20T17:40:17;99396.84;;;10.77
42197;BMP280;27866;48.146;17.098;2023-12-20T17:44:29;99394.50;;;10.74
42197;BMP280;27866;48.146;17.098;2023-12-20T17:48:41;99401.53;;;10.72
42197;BMP280;27866;48.146;17.098;2023-12-20T17:52:52;99407.28;;;10.65
42197;BMP280;27866;48.146;17.098;2023-12-20T17:57:06;99413.53;;;10.73
42197;BMP280;27866;48.146;17.098;2023-12-20T18:01:18;99413.91;;;10.80
42197;BMP280;27866;48.146;17.098;2023-12-20T18:05:29;99419.69;;;10.83
42197;BMP280;27866;48.146;17.098;2023-12-20T18:09:41;99415.22;;;10.85
42197;BMP280;27866;48.146;17.098;2023-12-20T18:13:52;99426.09;;;10.90
42197;BMP280;27866;48.146;17.098;2023-12-20T18:18:04;99411.47;;;11.00
42197;BMP280;27866;48.146;17.098;2023-12-20T18:22:16;99424.41;;;10.89
42197;BMP280;27866;48.146;17.098;2023-12-20T18:26:27;99419.31;;;10.77
42197;BMP280;27866;48.146;17.098;2023-12-20T18:30:38;99434.03;;;10.76
42197;BMP280;27866;48.146;17.098;2023-12-20T18:34:50;99437.69;;;10.74
42197;BMP280;27866;48.146;17.098;2023-12-20T18:39:02;99444.69;;;10.61
42197;BMP280;27866;48.146;17.098;2023-12-20T18:43:15;99450.19;;;10.46
42197;BMP280;27866;48.146;17.098;2023-12-20T18:47:27;99455.00;;;10.51
42197;BMP280;27866;48.146;17.098;2023-12-20T18:51:38;99461.59;;;10.55
42197;BMP280;27866;48.146;17.098;2023-12-20T18:55:50;99467.19;;;10.71
42197;BMP280;27866;48.146;17.098;2023-12-20T19:00:02;99472.53;;;10.81
42197;BMP280;27866;48.146;17.098;2023-12-20T19:04:13;99463.28;;;10.89
42197;BMP280;27866;48.146;17.098;2023-12-20T19:08:25;99457.66;;;11.05
42197;BMP280;27866;48.146;17.098;2023-12-20T19:12:37;99434.59;;;11.13
42197;BMP280;27866;48.146;17.098;2023-12-20T19:16:49;99426.88;;;11.24
42197;BMP280;27866;48.146;17.098;2023-12-20T19:21:01;99426.88;;;11.34
42197;BMP280;27866;48.146;17.098;2023-12-20T19:25:18;99425.69;;;11.38
42197;BMP280;27866;48.146;17.098;2023-12-20T19:29:30;99427.94;;;11.43
42197;BMP280;27866;48.146;17.098;2023-12-20T19:33:41;99444.31;;;11.43
42197;BMP280;27866;48.146;17.098;2023-12-20T19:37:53;99451.03;;;11.45
42197;BMP280;27866;48.146;17.098;2023-12-20T19:42:05;99443.25;;;11.45
42197;BMP280;27866;48.146;17.098;2023-12-20T19:46:17;99438.91;;;11.46
42197;BMP280;27866;48.146;17.098;2023-12-20T19:50:28;99440.78;;;11.44
42197;BMP280;27866;48.146;17.098;2023-12-20T19:54:40;99428.75;;;11.43
42197;BMP280;27866;48.146;17.098;2023-12-20T19:58:51;99422.06;;;11.41
42197;BMP280;27866;48.146;17.098;2023-12-20T20:03:03;99435.13;;;11.39
42197;BMP280;27866;48.146;17.098;2023-12-20T20:07:15;99431.22;;;11.34
42197;BMP280;27866;48.146;17.098;2023-12-20T20:11:30;99434.28;;;11.28
42197;BMP280;27866;48.146;17.098;2023-12-20T20:15:42;99441.72;;;11.22
42197;BMP280;27866;48.146;17.098;2023-12-20T20:19:53;99439.66;;;11.14
42197;BMP280;27866;48.146;17.098;2023-12-20T20:24:06;99447.06;;;11.08
42197;BMP280;27866;48.146;17.098;2023-12-20T20:28:18;99438.91;;;10.91
42197;BMP280;27866;48.146;17.098;2023-12-20T20:32:29;99450.09;;;10.92
42197;BMP280;27866;48.146;17.098;2023-12-20T20:36:41;99448.50;;;10.79
42197;BMP280;27866;48.146;17.098;2023-12-20T20:40:53;99451.47;;;10.74
42197;BMP280;27866;48.146;17.098;2023-12-20T20:45:06;99464.66;;;10.82
42197;BMP280;27866;48.146;17.098;2023-12-20T20:49:18;99453.63;;;10.91
42197;BMP280;27866;48.146;17.098;2023-12-20T20:53:30;99442.81;;;10.97
42197;BMP280;27866;48.146;17.098;2023-12-20T20:57:42;99456.22;;;11.01
42197;BMP280;27866;48.146;17.098;2023-12-20T21:01:53;99447.91;;;11.09
42197;BMP280;27866;48.146;17.098;2023-12-20T21:06:05;99444.72;;;11.16
42197;BMP280;27866;48.146;17.098;2023-12-20T21:10:17;99432.28;;;11.21
42197;BMP280;27866;48.146;17.098;2023-12-20T21:14:29;99431.09;;;11.25
42197;BMP280;27866;48.146;17.098;2023-12-20T21:18:41;99423.13;;;11.28
42197;BMP280;27866;48.146;17.098;2023-12-20T21:22:55;99437.25;;;11.24
42197;BMP280;27866;48.146;17.098;2023-12-20T21:27:09;99444.31;;;11.22
42197;BMP280;27866;48.146;17.098;2023-12-20T21:31:21;99441.25;;;11.28
42197;BMP280;27866;48.146;17.098;2023-12-20T21:35:33;99428.88;;;11.31
42197;BMP280;27866;48.146;17.098;2023-12-20T21:39:45;99418.25;;;11.34
42197;BMP280;27866;48.146;17.098;2023-12-20T21:43:56;99417.22;;;11.36
42197;BMP280;27866;48.146;17.098;2023-12-20T21:48:08;99412.03;;;11.36
42197;BMP280;27866;48.146;17.098;2023-12-20T21:52:20;99394.72;;;11.37
42197;BMP280;27866;48.146;17.098;2023-12-20T21:56:32;99395.66;;;11.36
42197;BMP280;27866;48.146;17.098;2023-12-20T22:00:44;99399.91;;;11.37
42197;BMP280;27866;48.146;17.098;2023-12-20T22:04:56;99398.03;;;11.39
42197;BMP280;27866;48.146;17.098;2023-12-20T22:09:07;99397.66;;;11.43
42197;BMP280;27866;48.146;17.098;2023-12-20T22:13:20;99400.94;;;11.45
42197;BMP280;27866;48.146;17.098;2023-12-20T22:17:31;99400.72;;;11.48
42197;BMP280;27866;48.146;17.098;2023-12-20T22:21:43;99396.97;;;11.52
42197;BMP280;27866;48.146;17.098;2023-12-20T22:25:56;99394.81;;;11.57
42197;BMP280;27866;48.146;17.098;2023-12-20T22:30:07;99398.00;;;11.60
42197;BMP280;27866;48.146;17.098;2023-12-20T22:34:20;99381.84;;;11.67
42197;BMP280;27866;48.146;17.098;2023-12-20T22:38:31;99382.19;;;11.73
42197;BMP280;27866;48.146;17.098;2023-12-20T22:42:44;99382.75;;;11.77
42197;BMP280;27866;48.146;17.098;2023-12-20T22:46:55;99381.25;;;11.74
42197;BMP280;27866;48.146;17.098;2023-12-20T22:51:07;99375.94;;;11.76
42197;BMP280;27866;48.146;17.098;2023-12-20T22:55:19;99381.84;;;11.78
42197;BMP280;27866;48.146;17.098;2023-12-20T22:59:30;99365.31;;;11.79
42197;BMP280;27866;48.146;17.098;2023-12-20T23:03:42;99367.19;;;11.77
42197;BMP280;27866;48.146;17.098;2023-12-20T23:07:53;99362.53;;;11.71
42197;BMP280;27866;48.146;17.098;2023-12-20T23:12:06;99360.84;;;11.70
42197;BMP280;27866;48.146;17.098;2023-12-20T23:16:17;99359.22;;;11.69
42197;BMP280;27866;48.146;17.098;2023-12-20T23:20:29;99343.88;;;11.66
42197;BMP280;27866;48.146;17.098;2023-12-20T23:24:40;99345.78;;;11.64
42197;BMP280;27866;48.146;17.098;2023-12-20T23:28:53;99352.38;;;11.68
42197;BMP280;27866;48.146;17.098;2023-12-20T23:33:04;99352.38;;;11.68
42197;BMP280;27866;48.146;17.098;2023-12-20T23:37:17;99347.88;;;11.70
42197;BMP280;27866;48.146;17.098;2023-12-20T23:41:28;99349.16;;;11.75
42197;BMP280;27866;48.146;17.098;2023-12-20T23:45:40;99335.84;;;11.80
42197;BMP280;27866;48.146;17.098;2023-12-20T23:49:51;99328.50;;;11.85
42197;BMP280;27866;48.146;17.098;2023-12-20T23:54:03;99324.50;;;11.91
42197;BMP280;27866;48.146;17.098;2023-12-20T23:58:14;99316.94;;;11.99
